Terminal Aerodrome Forecast
Issued by NWS

Home | Current Version | Previous Version | Text Only | Print | Product List | Glossary On
Versions: 1 2 3 4 5 6 7 8 9 10 11 12 13 14 15 16 17
478
FTUS44 KLZK 271745
TAFLLQ
TAF
KLLQ 271745Z 2718/2818 28006KT P6SM VCSH SCT005 BKN035 OVC050
      TEMPO 2718/2722 -SHRA BKN005 OVC035
     FM280300 21004KT P6SM OVC100
      TEMPO 2810/2814 5SM BR BKN008
     FM281400 22006KT P6SM VCSH SCT060 OVC080=

USA.gov is the U.S. government's official web portal to all federal, state and local government web resources and services.